Time;durP1;ratioP1;P1;durP2;ratioP2;P2;SDS_P1;SDS_P2;PMS_P1;PMS_P2;Temp;Humidity;BMP_temperature;BMP_pressure;BME280_temperature;BME280_humidity;BME280_pressure;Samples;Min_cycle;Max_cycle;Signal;HPM_P1;HPM_P2
2023/02/08 00:01:13;;;;;;;63.38;24.35;;;1.50;98.00;;;;;;5051696;28;20040;-79
2023/02/08 00:03:39;;;;;;;67.28;25.30;;;1.50;98.20;;;;;;5051185;28;20040;-80
2023/02/08 00:06:06;;;;;;;60.65;24.08;;;1.50;98.20;;;;;;5052243;28;20025;-79
2023/02/08 00:08:31;;;;;;;57.03;23.65;;;1.50;98.20;;;;;;5052199;28;20405;-79
2023/02/08 00:10:57;;;;;;;55.92;22.77;;;1.40;97.90;;;;;;5050942;28;20025;-78
2023/02/08 00:13:23;;;;;;;52.90;22.88;;;1.40;98.00;;;;;;5051076;28;20032;-78
2023/02/08 00:15:51;;;;;;;56.42;22.67;;;1.40;98.10;;;;;;5051432;28;20024;-78
2023/02/08 00:18:17;;;;;;;61.20;24.33;;;1.30;98.30;;;;;;5050758;28;20159;-79
2023/02/08 00:20:43;;;;;;;63.58;24.20;;;1.30;98.10;;;;;;5050953;28;20116;-78
2023/02/08 00:23:09;;;;;;;61.88;22.92;;;1.40;98.20;;;;;;5050720;28;20033;-79
2023/02/08 00:25:35;;;;;;;54.30;22.20;;;1.30;98.00;;;;;;5051847;28;20036;-79
2023/02/08 00:28:01;;;;;;;55.88;23.35;;;1.50;98.20;;;;;;5051829;28;20071;-79
2023/02/08 00:30:27;;;;;;;58.38;24.40;;;1.40;98.10;;;;;;5051000;28;20259;-78
2023/02/08 00:32:52;;;;;;;61.10;23.38;;;1.20;98.00;;;;;;5051893;28;20025;-78
2023/02/08 00:35:18;;;;;;;51.75;21.65;;;1.20;98.10;;;;;;5051378;28;20530;-78
2023/02/08 00:37:43;;;;;;;63.47;23.55;;;1.30;98.10;;;;;;5051371;28;20033;-78
2023/02/08 00:40:10;;;;;;;59.17;24.70;;;1.30;98.30;;;;;;5051703;28;20028;-77
2023/02/08 00:42:36;;;;;;;57.67;23.63;;;1.30;97.90;;;;;;5051429;28;20041;-77
2023/02/08 00:45:01;;;;;;;64.18;24.10;;;1.20;97.80;;;;;;5050155;28;20483;-77
2023/02/08 00:47:27;;;;;;;54.78;22.80;;;1.30;98.00;;;;;;5051426;28;20033;-78
2023/02/08 00:49:53;;;;;;;70.15;24.85;;;1.20;98.00;;;;;;5051104;28;20029;-78
2023/02/08 00:52:19;;;;;;;59.75;23.30;;;1.20;97.90;;;;;;5051289;28;20036;-78
2023/02/08 00:54:45;;;;;;;65.63;24.90;;;1.20;97.90;;;;;;5051641;28;20086;-78
2023/02/08 00:57:12;;;;;;;56.85;21.08;;;1.10;97.90;;;;;;5051117;28;20033;-78
2023/02/08 00:59:37;;;;;;;53.60;22.13;;;1.10;98.00;;;;;;5051147;28;20021;-78
2023/02/08 01:02:04;;;;;;;61.63;23.15;;;1.10;98.00;;;;;;5049982;28;20398;-79
2023/02/08 01:04:29;;;;;;;59.55;23.65;;;1.00;97.90;;;;;;5049754;28;20032;-78
2023/02/08 01:06:55;;;;;;;60.78;23.70;;;1.00;98.00;;;;;;5051402;28;20032;-79
2023/02/08 01:09:21;;;;;;;62.70;24.80;;;1.00;98.10;;;;;;5050952;28;20029;-78
2023/02/08 01:11:47;;;;;;;62.45;23.48;;;1.00;97.90;;;;;;5050978;28;20090;-77
2023/02/08 01:14:13;;;;;;;65.13;24.45;;;0.90;98.10;;;;;;5050640;28;20458;-77
2023/02/08 01:16:38;;;;;;;58.70;22.48;;;0.90;98.00;;;;;;5050009;28;20040;-79
2023/02/08 01:19:04;;;;;;;68.07;24.95;;;0.90;98.10;;;;;;5050553;28;20043;-78
2023/02/08 01:21:36;;;;;;;68.88;23.50;;;0.80;98.10;;;;;;5050744;28;20037;-78
2023/02/08 01:24:02;;;;;;;66.47;24.25;;;0.80;98.10;;;;;;5049573;28;20187;-77
2023/02/08 01:26:29;;;;;;;68.72;24.75;;;0.80;98.30;;;;;;5050511;28;20499;-78
2023/02/08 01:28:56;;;;;;;57.15;23.17;;;0.70;98.40;;;;;;5050741;28;20395;-78
2023/02/08 01:31:31;;;;;;;61.53;23.75;;;0.80;98.30;;;;;;5050596;28;20021;-77
2023/02/08 01:33:59;;;;;;;58.85;23.15;;;0.80;98.20;;;;;;5050288;28;20049;-78
2023/02/08 01:36:27;;;;;;;61.22;24.10;;;0.80;98.30;;;;;;5050946;28;20286;-78
2023/02/08 01:38:53;;;;;;;66.55;24.35;;;0.70;98.30;;;;;;5050998;28;20048;-77
2023/02/08 01:41:49;;;;;;;61.13;23.60;;;0.70;98.60;;;;;;5049425;28;20454;-77
2023/02/08 01:44:16;;;;;;;63.03;23.50;;;0.70;98.70;;;;;;5041365;28;20440;-77
2023/02/08 01:46:44;;;;;;;61.87;24.53;;;0.80;98.40;;;;;;5050619;28;20040;-77
2023/02/08 01:49:27;;;;;;;60.92;23.73;;;0.80;98.40;;;;;;5050915;28;20025;-78
2023/02/08 01:51:59;;;;;;;61.63;23.63;;;0.90;98.50;;;;;;5050631;28;20451;-76
2023/02/08 01:54:34;;;;;;;58.03;23.08;;;0.80;98.40;;;;;;5050428;28;20106;-76
2023/02/08 01:57:00;;;;;;;58.15;22.77;;;0.80;98.20;;;;;;5050322;28;20459;-77
2023/02/08 01:59:32;;;;;;;60.92;22.95;;;0.80;98.30;;;;;;5050428;28;20048;-77
2023/02/08 02:01:59;;;;;;;61.58;23.38;;;0.80;97.90;;;;;;5050403;28;20033;-77
2023/02/08 02:04:26;;;;;;;67.22;23.30;;;0.80;98.10;;;;;;5050626;28;20194;-77
2023/02/08 02:06:55;;;;;;;55.70;24.52;;;0.50;98.40;;;;;;5051037;28;20040;-78
2023/02/08 02:09:31;;;;;;;64.82;24.20;;;0.80;98.50;;;;;;5050410;28;20043;-77
2023/02/08 02:11:57;;;;;;;64.20;23.95;;;0.80;98.50;;;;;;5050555;28;20119;-76
2023/02/08 02:14:23;;;;;;;61.10;22.35;;;0.70;98.30;;;;;;5052196;28;20032;-77
2023/02/08 02:16:49;;;;;;;55.25;22.80;;;0.80;98.50;;;;;;5054394;28;20025;-77
2023/02/08 02:19:46;;;;;;;54.05;22.67;;;0.80;98.50;;;;;;5053811;28;20114;-77
2023/02/08 02:22:30;;;;;;;48.72;20.58;;;0.80;98.40;;;;;;5028741;28;20058;-77
2023/02/08 02:25:02;;;;;;;54.92;21.20;;;0.90;98.10;;;;;;5053423;28;20047;-77
2023/02/08 02:27:54;;;;;;;59.25;22.60;;;0.90;98.20;;;;;;5053996;28;20132;-77
2023/02/08 02:30:53;;;;;;;55.08;23.23;;;0.90;98.10;;;;;;5053887;28;20033;-77
2023/02/08 02:33:41;;;;;;;61.97;22.95;;;0.80;98.10;;;;;;5053925;28;20376;-78
2023/02/08 02:36:09;;;;;;;61.28;22.73;;;0.90;98.00;;;;;;5075673;28;20113;-77
2023/02/08 02:39:04;;;;;;;59.75;21.95;;;0.80;97.90;;;;;;5094425;28;20043;-77
2023/02/08 02:44:45;;;;;;;61.15;23.20;;;0.70;98.00;;;;;;5094523;28;20107;-77
2023/02/08 02:47:16;;;;;;;56.00;20.33;;;0.60;98.00;;;;;;5094084;28;20096;-78
2023/02/08 02:50:10;;;;;;;58.05;23.65;;;0.60;98.20;;;;;;5093835;28;20036;-77
2023/02/08 02:53:00;;;;;;;53.38;22.65;;;0.60;98.10;;;;;;5093177;28;20469;-77
2023/02/08 02:55:31;;;;;;;62.95;22.30;;;0.60;98.10;;;;;;5079490;28;20044;-77
2023/02/08 02:57:59;;;;;;;54.08;21.65;;;0.60;98.00;;;;;;5094422;28;20521;-77
2023/02/08 03:00:27;;;;;;;56.47;22.45;;;0.60;98.20;;;;;;5092825;28;20100;-77
2023/02/08 03:02:54;;;;;;;59.35;22.23;;;0.60;98.20;;;;;;5093697;28;20435;-77
2023/02/08 03:05:20;;;;;;;57.23;19.73;;;0.60;98.10;;;;;;5092380;28;20028;-76
2023/02/08 03:08:11;;;;;;;52.35;21.35;;;0.60;98.00;;;;;;5093608;28;20275;-77
2023/02/08 03:10:52;;;;;;;48.42;20.08;;;0.60;98.10;;;;;;5093198;28;20027;-76
2023/02/08 03:13:36;;;;;;;52.13;19.58;;;0.70;97.90;;;;;;5093501;28;20442;-76
2023/02/08 03:16:25;;;;;;;52.20;21.02;;;0.70;97.70;;;;;;5093758;28;20028;-76
2023/02/08 03:19:01;;;;;;;53.70;19.27;;;0.70;97.70;;;;;;5092122;28;20059;-76
2023/02/08 03:21:57;;;;;;;57.90;20.70;;;0.80;97.70;;;;;;5093221;28;20103;-76
2023/02/08 03:24:47;;;;;;;61.97;22.50;;;0.80;97.70;;;;;;5092422;28;20100;-77
2023/02/08 03:27:25;;;;;;;54.50;21.98;;;0.70;97.60;;;;;;5093144;28;20074;-76
2023/02/08 03:30:09;;;;;;;55.47;21.20;;;0.70;97.70;;;;;;5093106;28;20146;-76
2023/02/08 03:32:42;;;;;;;58.53;22.17;;;0.60;97.70;;;;;;5092112;28;20335;-77
2023/02/08 03:35:40;;;;;;;51.88;20.98;;;0.70;97.80;;;;;;5093064;28;20089;-76
2023/02/08 03:38:16;;;;;;;59.38;22.10;;;0.70;97.80;;;;;;5064972;28;20123;-76
2023/02/08 03:40:48;;;;;;;54.22;21.13;;;0.60;97.80;;;;;;5092858;28;20023;-77
2023/02/08 03:43:20;;;;;;;57.30;21.90;;;0.50;97.80;;;;;;5093219;28;20020;-76
2023/02/08 03:45:50;;;;;;;67.70;23.80;;;0.50;97.70;;;;;;5093019;28;20481;-76
2023/02/08 03:48:18;;;;;;;63.47;22.10;;;0.40;97.70;;;;;;5093201;28;20101;-76
2023/02/08 03:50:49;;;;;;;61.20;22.20;;;0.40;97.80;;;;;;5093260;28;20074;-76
2023/02/08 03:53:18;;;;;;;58.97;21.73;;;0.30;97.80;;;;;;5093061;28;20064;-77
2023/02/08 03:55:46;;;;;;;56.53;22.60;;;0.20;97.90;;;;;;5092750;28;20024;-77
2023/02/08 03:58:24;;;;;;;56.15;20.17;;;0.20;98.00;;;;;;5092983;28;20024;-77
2023/02/08 04:01:02;;;;;;;59.55;22.10;;;0.20;98.00;;;;;;5093293;28;20416;-77
2023/02/08 04:03:29;;;;;;;;;;;0.20;98.10;;;;;;5093062;28;20029;-76
2023/02/08 04:05:55;;;;;;;51.83;20.45;;;0.20;98.00;;;;;;5092594;28;20295;-77
2023/02/08 04:08:20;;;;;;;57.70;22.05;;;0.30;98.10;;;;;;5092615;28;20042;-78
2023/02/08 04:10:49;;;;;;;55.35;21.02;;;0.30;98.00;;;;;;5092235;28;20059;-76
2023/02/08 04:13:14;;;;;;;63.25;22.70;;;0.40;97.80;;;;;;5092981;28;20031;-76
2023/02/08 04:15:40;;;;;;;54.75;21.30;;;0.50;97.50;;;;;;5092482;28;20036;-77
2023/02/08 04:18:05;;;;;;;56.22;21.88;;;0.40;97.60;;;;;;5092646;28;20056;-76
2023/02/08 04:20:31;;;;;;;53.58;20.15;;;0.20;97.70;;;;;;5092033;28;20104;-76
2023/02/08 04:22:57;;;;;;;52.63;21.77;;;0.10;97.80;;;;;;5092133;28;20119;-76
2023/02/08 04:25:22;;;;;;;63.88;22.83;;;0.20;97.80;;;;;;5091176;28;20035;-77
2023/02/08 04:27:48;;;;;;;55.15;21.63;;;0.00;97.80;;;;;;5092212;28;20048;-77
2023/02/08 04:30:14;;;;;;;55.90;22.38;;;-0.10;97.90;;;;;;5092170;28;20024;-76
2023/02/08 04:32:39;;;;;;;55.30;21.73;;;0.00;97.90;;;;;;5092088;28;20107;-77
2023/02/08 04:35:05;;;;;;;54.08;22.23;;;-0.10;97.90;;;;;;5091169;28;20205;-77
2023/02/08 04:37:31;;;;;;;59.42;20.65;;;0.00;97.90;;;;;;5092186;28;20020;-78
2023/02/08 04:39:57;;;;;;;58.00;20.85;;;0.00;97.90;;;;;;5092310;28;20096;-76
2023/02/08 04:42:23;;;;;;;67.10;21.92;;;-0.10;97.80;;;;;;5091916;28;20521;-78
2023/02/08 04:44:48;;;;;;;52.45;21.55;;;-0.10;97.80;;;;;;5092074;28;20028;-77
2023/02/08 04:47:14;;;;;;;59.78;20.88;;;-0.20;97.80;;;;;;5092493;28;20032;-77
2023/02/08 04:49:39;;;;;;;60.63;21.15;;;-0.20;97.90;;;;;;5090743;28;20047;-78
2023/02/08 04:52:05;;;;;;;47.55;19.83;;;-0.10;97.90;;;;;;5091886;28;20042;-77
2023/02/08 04:54:32;;;;;;;52.10;20.92;;;-0.20;97.90;;;;;;5091981;28;20039;-76
2023/02/08 04:56:58;;;;;;;56.17;21.50;;;-0.10;97.80;;;;;;5091891;28;20385;-77
2023/02/08 04:59:23;;;;;;;53.08;19.90;;;-0.10;97.70;;;;;;5091738;28;20029;-76
2023/02/08 05:01:49;;;;;;;47.47;18.83;;;-0.10;97.60;;;;;;5090587;28;20028;-77
2023/02/08 05:04:14;;;;;;;54.08;20.08;;;-0.10;97.70;;;;;;5091732;28;20038;-76
2023/02/08 05:06:40;;;;;;;52.42;19.25;;;-0.20;97.70;;;;;;5091420;28;20039;-77
2023/02/08 05:09:08;;;;;;;54.05;20.30;;;-0.10;97.30;;;;;;5091360;28;20131;-78
2023/02/08 05:11:34;;;;;;;52.20;19.80;;;-0.10;97.60;;;;;;5091407;28;20043;-78
2023/02/08 05:14:00;;;;;;;50.92;19.08;;;-0.20;97.70;;;;;;5092341;28;20028;-78
2023/02/08 05:16:26;;;;;;;45.15;19.77;;;-0.10;97.70;;;;;;5091667;28;20067;-78
2023/02/08 05:18:51;;;;;;;45.53;18.75;;;-0.10;97.50;;;;;;5092111;28;20029;-77
2023/02/08 05:21:17;;;;;;;49.63;19.70;;;-0.10;97.80;;;;;;5092206;28;20028;-78
2023/02/08 05:23:42;;;;;;;51.20;19.30;;;-0.10;97.80;;;;;;5092818;28;20036;-79
2023/02/08 05:26:10;;;;;;;46.45;18.83;;;-0.10;97.80;;;;;;5092944;28;20110;-77
2023/02/08 05:28:36;;;;;;;54.55;19.30;;;-0.10;97.70;;;;;;5093023;28;20186;-77
2023/02/08 05:31:19;;;;;;;54.97;19.70;;;-0.10;98.00;;;;;;5093738;28;20065;-77
2023/02/08 05:33:44;;;;;;;53.00;20.15;;;0.10;97.90;;;;;;5092645;28;20052;-77
2023/02/08 05:36:10;;;;;;;54.80;19.30;;;-0.10;97.70;;;;;;5092019;28;20370;-77
2023/02/08 05:38:35;;;;;;;51.10;19.35;;;-0.10;97.60;;;;;;5090859;28;20040;-76
2023/02/08 05:41:01;;;;;;;55.17;19.67;;;-0.10;97.70;;;;;;5091790;28;20024;-79
2023/02/08 05:43:27;;;;;;;50.65;20.38;;;-0.10;97.70;;;;;;5092256;28;20035;-77
2023/02/08 05:45:52;;;;;;;52.53;20.08;;;-0.10;97.80;;;;;;5081734;28;20020;-77
2023/02/08 05:48:18;;;;;;;55.88;20.83;;;-0.10;97.80;;;;;;5050838;28;20201;-78
2023/02/08 05:50:44;;;;;;;51.25;19.48;;;-0.20;97.90;;;;;;5050969;28;20471;-76
2023/02/08 05:53:09;;;;;;;58.65;21.45;;;-0.20;98.00;;;;;;5049221;28;20040;-77
2023/02/08 05:55:35;;;;;;;53.55;20.20;;;-0.10;97.90;;;;;;5051127;28;20049;-76
2023/02/08 05:58:01;;;;;;;51.85;19.85;;;0.00;98.00;;;;;;5050682;28;20495;-77
2023/02/08 06:00:26;;;;;;;54.53;21.65;;;0.00;98.00;;;;;;5051101;28;20029;-77
2023/02/08 06:02:52;;;;;;;55.47;20.02;;;0.00;97.80;;;;;;5049691;28;20478;-76
2023/02/08 06:05:18;;;;;;;52.65;19.80;;;0.00;97.70;;;;;;5050548;28;20414;-77
2023/02/08 06:07:43;;;;;;;50.67;19.63;;;0.10;97.90;;;;;;5050338;28;20025;-76
2023/02/08 06:10:09;;;;;;;55.55;20.50;;;0.00;98.00;;;;;;5051007;28;20074;-78
2023/02/08 06:12:35;;;;;;;52.30;20.15;;;0.00;97.90;;;;;;5050401;28;20040;-78
2023/02/08 06:15:01;;;;;;;53.17;19.80;;;0.00;97.70;;;;;;5048925;28;20108;-78
2023/02/08 06:17:27;;;;;;;52.58;20.50;;;0.00;97.80;;;;;;5050302;28;20083;-77
2023/02/08 06:19:52;;;;;;;64.43;22.60;;;0.00;97.80;;;;;;5050080;28;20083;-76
2023/02/08 06:22:18;;;;;;;62.67;22.17;;;0.00;97.90;;;;;;5050123;28;20472;-78
2023/02/08 06:24:44;;;;;;;58.25;21.52;;;-0.10;98.00;;;;;;5050523;28;20078;-78
2023/02/08 06:27:09;;;;;;;54.53;20.83;;;-0.10;98.00;;;;;;5048703;28;20045;-77
2023/02/08 06:29:35;;;;;;;57.15;21.02;;;0.00;97.90;;;;;;5048587;28;20040;-77
2023/02/08 06:32:01;;;;;;;59.08;20.83;;;0.00;98.10;;;;;;5050480;28;20037;-76
2023/02/08 06:34:26;;;;;;;56.88;21.65;;;-0.10;98.00;;;;;;5050215;28;20029;-78
2023/02/08 06:36:52;;;;;;;53.42;20.33;;;-0.10;98.10;;;;;;5050407;28;20035;-78
2023/02/08 06:39:18;;;;;;;58.50;20.48;;;-0.10;97.90;;;;;;5050069;28;20376;-78
2023/02/08 06:41:43;;;;;;;54.60;20.92;;;-0.10;97.90;;;;;;5050145;28;20033;-78
2023/02/08 06:44:09;;;;;;;51.60;20.98;;;-0.10;97.70;;;;;;5050428;28;20387;-79
2023/02/08 06:46:37;;;;;;;62.15;22.20;;;-0.10;98.00;;;;;;5052304;28;20162;-76
2023/02/08 06:49:03;;;;;;;59.67;22.08;;;0.00;98.10;;;;;;5069928;28;20048;-75
2023/02/08 06:51:29;;;;;;;65.63;23.35;;;-0.10;98.00;;;;;;5069585;28;20474;-77
2023/02/08 06:53:54;;;;;;;56.58;21.75;;;-0.10;98.00;;;;;;5069406;28;20055;-77
2023/02/08 06:56:20;;;;;;;68.78;24.35;;;-0.10;98.00;;;;;;5070753;28;20043;-78
2023/02/08 06:58:46;;;;;;;63.92;23.08;;;0.00;97.90;;;;;;5070942;28;20477;-78
2023/02/08 07:01:13;;;;;;;71.53;23.98;;;0.30;97.90;;;;;;5073835;28;20131;-77
2023/02/08 07:03:39;;;;;;;64.60;23.50;;;0.10;97.60;;;;;;5073597;28;20204;-77
2023/02/08 07:06:04;;;;;;;61.22;23.20;;;0.20;97.60;;;;;;5071070;28;20467;-78
2023/02/08 07:08:32;;;;;;;56.85;22.77;;;0.30;97.70;;;;;;5072679;28;20036;-78
2023/02/08 07:10:58;;;;;;;73.90;26.17;;;0.20;97.70;;;;;;5074169;28;20485;-79
2023/02/08 07:13:23;;;;;;;62.70;23.10;;;0.40;97.90;;;;;;5073631;28;20111;-79
2023/02/08 07:15:49;;;;;;;61.67;24.33;;;0.10;97.90;;;;;;5073375;28;20073;-78
2023/02/08 07:18:15;;;;;;;77.72;30.25;;;0.10;97.80;;;;;;5074344;28;20117;-79
2023/02/08 07:20:40;;;;;;;68.75;26.20;;;0.10;97.70;;;;;;5072630;28;20174;-78
2023/02/08 07:23:06;;;;;;;65.32;24.17;;;0.10;97.80;;;;;;5072540;28;20486;-79
2023/02/08 07:25:32;;;;;;;58.33;21.55;;;0.10;97.90;;;;;;5073696;28;20094;-79
2023/02/08 07:27:57;;;;;;;55.65;21.05;;;0.10;97.60;;;;;;5072811;28;20048;-79
2023/02/08 07:30:23;;;;;;;63.53;23.77;;;0.10;97.70;;;;;;5072354;28;20028;-78
2023/02/08 07:32:49;;;;;;;67.30;23.40;;;0.10;97.90;;;;;;5072432;28;20128;-78
2023/02/08 07:35:14;;;;;;;57.65;21.25;;;0.10;97.80;;;;;;5072884;28;20028;-77
2023/02/08 07:37:40;;;;;;;61.42;23.08;;;0.40;98.00;;;;;;5071863;28;20175;-77
2023/02/08 07:40:06;;;;;;;58.80;21.23;;;0.10;97.90;;;;;;5073854;28;20114;-79
2023/02/08 07:42:32;;;;;;;68.85;26.20;;;0.20;97.90;;;;;;5072250;28;20446;-78
2023/02/08 07:44:58;;;;;;;58.20;22.48;;;0.30;97.80;;;;;;5072726;28;20115;-79
2023/02/08 07:47:23;;;;;;;67.38;22.98;;;0.20;97.70;;;;;;5073314;28;20043;-78
2023/02/08 07:49:49;;;;;;;58.67;20.95;;;0.40;97.80;;;;;;5073033;28;20032;-78
2023/02/08 07:52:15;;;;;;;60.00;22.60;;;0.30;97.70;;;;;;5073565;28;20447;-77
2023/02/08 07:54:40;;;;;;;50.42;20.75;;;0.40;97.60;;;;;;5072830;28;20036;-77
2023/02/08 07:57:06;;;;;;;53.40;20.33;;;0.40;97.50;;;;;;5072603;28;20327;-79
2023/02/08 07:59:32;;;;;;;65.07;23.25;;;0.40;97.50;;;;;;5071126;28;20467;-78
2023/02/08 08:01:58;;;;;;;56.58;21.13;;;0.50;97.50;;;;;;5072501;28;20348;-77
2023/02/08 08:04:23;;;;;;;54.60;21.05;;;0.60;97.40;;;;;;5072296;28;20032;-79
2023/02/08 08:06:50;;;;;;;58.85;22.58;;;0.60;97.30;;;;;;5072826;28;20016;-77
2023/02/08 08:09:16;;;;;;;55.95;21.73;;;0.60;97.40;;;;;;5072080;28;20033;-77
2023/02/08 08:11:42;;;;;;;55.85;20.50;;;0.70;97.60;;;;;;5070642;28;20094;-78
2023/02/08 08:14:07;;;;;;;54.97;21.02;;;0.70;97.40;;;;;;5072682;28;20357;-79
2023/02/08 08:16:33;;;;;;;51.60;20.13;;;0.70;97.40;;;;;;5071496;28;20021;-79
2023/02/08 08:18:58;;;;;;;50.67;19.02;;;0.80;97.40;;;;;;5073182;28;20461;-78
2023/02/08 08:21:24;;;;;;;50.78;20.02;;;0.80;97.10;;;;;;5072372;28;20089;-78
2023/02/08 08:23:50;;;;;;;49.60;18.95;;;0.80;97.10;;;;;;5070947;28;20024;-78
2023/02/08 08:26:19;;;;;;;62.30;21.48;;;0.90;97.10;;;;;;5072362;28;20465;-77
2023/02/08 08:28:45;;;;;;;50.13;20.75;;;0.90;97.30;;;;;;5072554;28;20035;-78
2023/02/08 08:31:14;;;;;;;48.60;19.67;;;1.00;97.20;;;;;;5072643;28;20028;-77
2023/02/08 08:33:39;;;;;;;51.42;19.48;;;1.20;97.20;;;;;;5071064;28;20117;-79
2023/02/08 08:36:06;;;;;;;52.58;20.40;;;1.20;97.00;;;;;;5072354;28;20048;-78
2023/02/08 08:38:32;;;;;;;48.90;19.45;;;1.30;96.80;;;;;;5071952;28;20082;-79
2023/02/08 08:40:58;;;;;;;52.55;20.42;;;1.40;96.70;;;;;;5071013;28;20024;-78
2023/02/08 08:43:23;;;;;;;56.25;21.20;;;1.50;96.70;;;;;;5070862;28;20529;-78
2023/02/08 08:45:49;;;;;;;48.85;18.40;;;1.70;96.80;;;;;;5072619;28;20108;-79
2023/02/08 08:48:15;;;;;;;50.58;20.20;;;1.90;96.80;;;;;;5071995;28;20142;-79
2023/02/08 08:50:41;;;;;;;49.75;20.33;;;2.10;96.80;;;;;;5071769;28;20044;-78
2023/02/08 08:53:08;;;;;;;44.78;18.70;;;2.80;96.50;;;;;;5071900;28;20380;-80
2023/02/08 08:55:34;;;;;;;48.83;21.70;;;3.40;96.10;;;;;;5071687;28;20116;-79
2023/02/08 08:58:00;;;;;;;53.72;20.98;;;4.00;96.00;;;;;;5072566;28;20123;-78
2023/02/08 09:00:26;;;;;;;48.92;21.23;;;4.30;95.40;;;;;;5070627;28;20039;-79
2023/02/08 09:02:52;;;;;;;48.35;21.30;;;4.70;94.80;;;;;;5070761;28;20021;-78
2023/02/08 09:05:18;;;;;;;42.00;19.20;;;5.20;93.70;;;;;;5071591;28;20029;-79
2023/02/08 09:07:43;;;;;;;48.67;19.88;;;5.40;92.90;;;;;;5072932;28;20343;-78
2023/02/08 09:10:09;;;;;;;45.47;18.27;;;5.40;92.90;;;;;;5070717;28;20451;-81
2023/02/08 09:12:35;;;;;;;38.88;17.50;;;5.40;92.70;;;;;;5071129;28;20052;-77
2023/02/08 09:15:01;;;;;;;35.67;16.30;;;5.50;92.00;;;;;;5070304;28;20128;-77
2023/02/08 09:17:27;;;;;;;39.67;16.27;;;5.70;91.60;;;;;;5071344;28;20048;-78
2023/02/08 09:19:52;;;;;;;43.17;16.70;;;5.60;90.20;;;;;;5071287;28;20120;-79
2023/02/08 09:22:19;;;;;;;37.95;17.27;;;5.60;90.40;;;;;;5070546;28;20395;-77
2023/02/08 09:24:44;;;;;;;37.25;16.95;;;5.70;90.20;;;;;;5071436;28;20013;-78
2023/02/08 09:27:10;;;;;;;36.67;15.75;;;5.60;90.10;;;;;;5070583;28;20444;-79
2023/02/08 09:29:36;;;;;;;37.88;16.48;;;5.50;89.90;;;;;;5070815;28;20380;-79
2023/02/08 09:32:02;;;;;;;43.45;17.20;;;5.50;90.10;;;;;;5069577;28;20036;-79
2023/02/08 09:34:27;;;;;;;38.58;17.25;;;5.30;90.10;;;;;;5070650;28;20020;-78
2023/02/08 09:36:53;;;;;;;36.17;15.88;;;5.30;90.10;;;;;;5071195;28;20020;-80
2023/02/08 09:39:22;;;;;;;38.28;15.27;;;5.10;89.30;;;;;;5070875;28;20040;-80
2023/02/08 09:42:11;;;;;;;37.85;16.27;;;5.00;89.90;;;;;;5070732;28;20050;-80
2023/02/08 09:44:58;;;;;;;33.03;14.13;;;5.10;90.30;;;;;;5071011;28;20037;-78
2023/02/08 09:47:25;;;;;;;33.13;14.85;;;5.00;89.80;;;;;;5070251;28;20384;-79
2023/02/08 09:50:21;;;;;;;34.67;15.77;;;5.10;89.90;;;;;;5071062;28;20123;-80
2023/02/08 09:52:58;;;;;;;37.03;15.00;;;5.00;89.50;;;;;;5065956;28;20498;-77
2023/02/08 09:55:40;;;;;;;33.35;14.52;;;5.00;89.30;;;;;;5069991;28;20024;-78
2023/02/08 09:58:25;;;;;;;36.35;14.70;;;4.90;89.10;;;;;;5071189;28;20024;-78
2023/02/08 10:00:52;;;;;;;40.53;15.82;;;4.90;88.80;;;;;;5069876;28;20121;-79
2023/02/08 10:03:30;;;;;;;38.15;15.45;;;4.90;89.00;;;;;;5070992;28;20024;-78
2023/02/08 10:05:56;;;;;;;36.20;15.02;;;4.90;89.10;;;;;;5069498;28;20024;-78
2023/02/08 10:08:22;;;;;;;34.53;14.27;;;4.90;89.10;;;;;;5070664;28;20039;-78
2023/02/08 10:11:14;;;;;;;29.95;13.10;;;4.80;87.80;;;;;;5069562;28;20154;-78
2023/02/08 10:13:41;;;;;;;26.50;12.38;;;5.00;87.90;;;;;;5069730;28;20031;-77
2023/02/08 10:16:34;;;;;;;28.48;12.30;;;5.10;86.10;;;;;;5070465;28;20028;-77
2023/02/08 10:19:21;;;;;;;27.25;11.80;;;5.00;85.70;;;;;;5069550;28;20110;-78
2023/02/08 10:22:09;;;;;;;25.77;12.23;;;5.00;85.60;;;;;;5069951;28;20112;-79
2023/02/08 10:24:50;;;;;;;29.05;12.88;;;5.20;85.50;;;;;;5069940;28;20462;-78
2023/02/08 10:27:31;;;;;;;24.67;10.57;;;5.30;84.90;;;;;;5069493;28;20048;-79
2023/02/08 10:30:48;;;;;;;26.80;11.80;;;5.50;84.40;;;;;;5069149;28;20028;-80
2023/02/08 10:33:25;;;;;;;26.88;12.68;;;7.20;85.20;;;;;;5025524;28;20049;-81
2023/02/08 10:35:52;;;;;;;29.95;12.93;;;9.00;80.40;;;;;;5074260;28;20040;-81
2023/02/08 10:38:18;;;;;;;29.00;13.05;;;10.30;76.80;;;;;;5074650;28;20367;-82
2023/02/08 10:40:46;;;;;;;33.83;13.88;;;11.20;73.40;;;;;;5075018;28;20451;-80
2023/02/08 10:43:29;;;;;;;35.08;14.18;;;12.10;72.40;;;;;;5073769;28;20027;-81
2023/02/08 10:46:16;;;;;;;27.23;12.80;;;12.20;69.00;;;;;;5073522;28;20044;-80
2023/02/08 10:49:03;;;;;;;34.78;14.00;;;12.20;69.60;;;;;;5073594;28;20025;-82
2023/02/08 10:51:29;;;;;;;31.27;14.30;;;13.20;69.30;;;;;;5074983;28;20028;-83
2023/02/08 10:53:55;;;;;;;38.00;14.23;;;13.80;63.90;;;;;;5075577;28;20367;-82
2023/02/08 10:56:21;;;;;;;24.48;12.20;;;14.10;61.10;;;;;;5074018;28;20505;-81
2023/02/08 10:58:47;;;;;;;28.63;13.30;;;14.70;60.60;;;;;;5073288;28;20035;-82
2023/02/08 11:01:13;;;;;;;25.73;13.30;;;15.20;57.70;;;;;;5074909;28;20029;-79
2023/02/08 11:03:58;;;;;;;33.65;15.90;;;15.60;53.70;;;;;;5073976;28;20035;-83
2023/02/08 11:06:26;;;;;;;31.92;16.67;;;15.40;53.50;;;;;;5074734;28;20036;-81
2023/02/08 11:08:55;;;;;;;35.35;14.98;;;16.20;54.90;;;;;;5074678;28;20072;-81
2023/02/08 11:11:26;;;;;;;40.45;17.20;;;16.30;52.40;;;;;;5073573;28;20037;-82
2023/02/08 11:13:52;;;;;;;25.00;12.35;;;16.80;53.90;;;;;;5073793;28;20037;-81
2023/02/08 11:16:31;;;;;;;29.35;12.52;;;17.40;52.50;;;;;;5073820;28;20024;-82
2023/02/08 11:19:00;;;;;;;35.78;13.10;;;17.40;50.50;;;;;;5075857;28;20028;-81
2023/02/08 11:21:38;;;;;;;24.45;11.70;;;17.20;51.10;;;;;;5076195;28;20170;-81
2023/02/08 11:24:06;;;;;;;24.42;12.80;;;17.40;49.20;;;;;;5074075;28;20056;-81
2023/02/08 11:26:40;;;;;;;25.08;13.23;;;17.30;46.90;;;;;;5074302;28;20076;-84
2023/02/08 11:29:26;;;;;;;26.98;14.05;;;17.30;47.50;;;;;;5072917;28;20040;-81
2023/02/08 11:32:00;;;;;;;29.67;14.20;;;17.30;46.70;;;;;;5072711;28;20025;-81
2023/02/08 11:34:39;;;;;;;27.95;13.85;;;17.60;49.30;;;;;;5073898;28;20021;-81
2023/02/08 11:37:21;;;;;;;29.20;13.52;;;18.10;47.40;;;;;;5073903;28;20016;-82
2023/02/08 11:39:59;;;;;;;26.15;14.48;;;17.70;45.20;;;;;;5072982;28;20048;-80
2023/02/08 11:42:30;;;;;;;31.08;12.55;;;17.20;44.50;;;;;;5073854;28;20358;-81
2023/02/08 11:44:58;;;;;;;33.22;14.68;;;17.50;47.50;;;;;;5072385;28;20411;-80
2023/02/08 11:47:29;;;;;;;40.30;15.95;;;17.90;46.00;;;;;;5073246;28;20028;-80
2023/02/08 11:49:58;;;;;;;25.17;12.45;;;18.00;45.10;;;;;;5065581;28;20044;-81
2023/02/08 11:52:29;;;;;;;22.27;12.27;;;18.00;43.90;;;;;;5071953;28;20315;-81
2023/02/08 11:55:15;;;;;;;24.77;14.60;;;17.80;42.90;;;;;;5073894;28;20017;-81
2023/02/08 11:57:58;;;;;;;50.92;20.42;;;17.00;43.10;;;;;;5073166;28;20110;-82
2023/02/08 12:00:49;;;;;;;28.70;13.85;;;17.10;44.50;;;;;;5072505;28;20457;-81
2023/02/08 12:03:20;;;;;;;28.70;13.10;;;16.80;45.00;;;;;;5070825;28;20063;-80
2023/02/08 12:06:13;;;;;;;23.42;13.00;;;16.40;44.80;;;;;;5072624;28;20029;-78
2023/02/08 12:09:09;;;;;;;26.85;13.77;;;16.00;44.90;;;;;;5071818;28;20043;-79
2023/02/08 12:12:01;;;;;;;24.25;12.98;;;15.30;44.30;;;;;;5068667;28;20135;-80
2023/02/08 12:14:56;;;;;;;26.83;13.57;;;14.70;45.90;;;;;;5072792;28;20137;-80
2023/02/08 12:17:56;;;;;;;24.98;11.52;;;14.30;46.10;;;;;;5071924;28;20032;-80
2023/02/08 12:20:37;;;;;;;26.42;12.68;;;13.40;46.60;;;;;;5073033;28;20029;-79
2023/02/08 12:23:19;;;;;;;24.00;12.25;;;13.10;48.30;;;;;;5072587;28;20029;-79
2023/02/08 12:26:05;;;;;;;25.55;12.10;;;12.80;48.20;;;;;;5071408;28;20032;-79
2023/02/08 12:28:43;;;;;;;25.63;11.75;;;12.70;48.30;;;;;;5072252;28;20052;-78
2023/02/08 12:31:26;;;;;;;24.52;12.02;;;12.70;49.00;;;;;;5072694;28;20123;-77
2023/02/08 12:34:13;;;;;;;22.73;10.75;;;12.50;49.00;;;;;;5071325;28;20033;-78
2023/02/08 12:40:48;;;;;;;20.23;10.18;;;12.40;48.50;;;;;;5071489;28;20058;-79
2023/02/08 12:43:01;;;;;;;23.30;11.82;;;11.90;49.10;;;;;;5072635;28;20366;-78
2023/02/08 12:45:39;;;;;;;23.70;11.38;;;11.80;49.80;;;;;;5070851;28;20382;-77
2023/02/08 12:48:17;;;;;;;21.77;11.18;;;11.80;50.60;;;;;;5070903;28;20032;-78
2023/02/08 12:51:01;;;;;;;27.63;12.02;;;11.70;50.00;;;;;;5071806;28;20037;-79
2023/02/08 12:53:33;;;;;;;25.10;11.95;;;11.60;50.80;;;;;;5072264;28;20470;-78
2023/02/08 12:56:05;;;;;;;27.50;11.85;;;11.50;51.00;;;;;;5071848;28;20029;-78
2023/02/08 12:58:48;;;;;;;26.48;11.48;;;11.50;51.20;;;;;;5070466;28;20059;-78